Observation data for Pampa on 11/17/2019      Previous  Date       Current Mesonet Observations  Soil Data  Daily Summary Page  Observations in Plain Language
KPMS 170600Z 32003KT 08/02 A3001 RMK A01 T00830022  RH  067%=      5-min Rain = 0
KPMS 170605Z 32003KT 08/02 A3001 RMK A01 T00800021  RH  067%=      5-min Rain = 0
KPMS 170610Z 33003KT 08/02 A3001 RMK A01 T00790021  RH  068%=      5-min Rain = 0
KPMS 170615Z 32001KT 08/02 A3001 RMK A01 T00790021  RH  068%=      5-min Rain = 0
KPMS 170620Z 11000KT 08/02 A3001 RMK A01 T00810021  RH  067%=      5-min Rain = 0
KPMS 170625Z 03000KT 08/02 A3001 RMK A01 T00800020  RH  067%=      5-min Rain = 0
KPMS 170630Z 35001KT 08/02 A30 RMK A01 T00800021  RH  067%=      5-min Rain = 0
KPMS 170635Z 32002KT 08/02 A3001 RMK A01 T00780020  RH  068%=      5-min Rain = 0
KPMS 170640Z 30002KT 08/02 A3001 RMK A01 T00760020  RH  068%=      5-min Rain = 0
KPMS 170645Z 31004KT 08/02 A3001 RMK A01 T00750019  RH  069%=      5-min Rain = 0
KPMS 170650Z 31005KT 06/01 A3001 RMK A01 T00600013  RH  073%=      5-min Rain = 0
KPMS 170655Z 32010KT 06/02 A3001 RMK A01 T00640017  RH  073%=      5-min Rain = 0
KPMS 170700Z 33015G21KT 09/02 A3002 RMK A01 T00870017  RH  062%=      5-min Rain = 0
KPMS 170705Z 34018G23KT 09/01 A3002 RMK A01 T00910008  RH  057%=      5-min Rain = 0
KPMS 170710Z 34018KT 09/00 A3002 RMK A01 T00890003  RH  055%=      5-min Rain = 0
KPMS 170715Z 35017G22KT 09/00 A3002 RMK A01 T008700-0  RH  055%=      5-min Rain = 0
KPMS 170720Z 35018KT 09/M00 A3002 RMK A01 T00851003  RH  054%=      5-min Rain = 0
KPMS 170725Z 35017G23KT 08/M01 A3002 RMK A01 T00821006  RH  054%=      5-min Rain = 0
KPMS 170730Z 35017KT 08/M01 A3002 RMK A01 T00801007  RH  055%=      5-min Rain = 0
KPMS 170735Z 34015G21KT 08/M01 A3002 RMK A01 T00761008  RH  056%=      5-min Rain = 0
KPMS 170740Z 35016G21KT 08/M01 A3002 RMK A01 T00751009  RH  056%=      5-min Rain = 0
KPMS 170745Z 35016G21KT 08/M01 A3002 RMK A01 T00771010  RH  055%=      5-min Rain = 0
KPMS 170750Z 35016G22KT 08/M01 A3003 RMK A01 T00781010  RH  054%=      5-min Rain = 0
KPMS 170755Z 35017G23KT 08/M01 A3003 RMK A01 T00791010  RH  054%=      5-min Rain = 0
KPMS 170800Z 35016G21KT 08/M01 A3003 RMK A01 T00791009  RH  054%=      5-min Rain = 0
KPMS 170805Z 35016G22KT 08/M01 A3003 RMK A01 T00801009  RH  054%=      5-min Rain = 0
KPMS 170810Z 35014G19KT 08/M01 A3003 RMK A01 T00811009  RH  054%=      5-min Rain = 0
KPMS 170815Z 34015G20KT 08/M01 A3004 RMK A01 T00821009  RH  053%=      5-min Rain = 0
KPMS 170820Z 35017G23KT 08/M01 A3004 RMK A01 T00831008  RH  053%=      5-min Rain = 0
KPMS 170825Z 35017G24KT 08/M01 A3004 RMK A01 T00831008  RH  053%=      5-min Rain = 0
KPMS 170830Z 35019G26KT 08/M01 A3004 RMK A01 T00831007  RH  053%=      5-min Rain = 0
KPMS 170835Z 35018G23KT 08/M01 A3005 RMK A01 T00831007  RH  054%=      5-min Rain = 0
KPMS 170840Z 35017KT 08/M01 A3005 RMK A01 T00821006  RH  055%=      5-min Rain = 0
KPMS 170845Z 35018G23KT 08/M01 A3005 RMK A01 T00811006  RH  055%=      5-min Rain = 0
KPMS 170850Z 36017G22KT 08/M01 A3006 RMK A01 T00811005  RH  055%=      5-min Rain = 0
KPMS 170855Z 36014G21KT 08/M01 A3006 RMK A01 T00791005  RH  056%=      5-min Rain = 0
KPMS 170900Z 36016KT 08/M00 A3006 RMK A01 T00781004  RH  057%=      5-min Rain = 0
KPMS 170905Z 35016KT 08/M00 A3007 RMK A01 T00781003  RH  057%=      5-min Rain = 0
KPMS 170910Z 35015KT 08/M00 A3007 RMK A01 T00781003  RH  058%=      5-min Rain = 0
KPMS 170915Z 36015KT 08/M00 A3006 RMK A01 T00771002  RH  058%=      5-min Rain = 0
KPMS 170920Z 36015KT 08/M00 A3006 RMK A01 T00771002  RH  058%=      5-min Rain = 0
KPMS 170925Z 36014KT 08/M00 A3007 RMK A01 T00761001  RH  059%=      5-min Rain = 0
KPMS 170930Z 35015G22KT 08/00 A3007 RMK A01 T007500-0  RH  060%=      5-min Rain = 0
KPMS 170935Z 36015G20KT 08/00 A3007 RMK A01 T00750000  RH  060%=      5-min Rain = 0
KPMS 170940Z 36015G20KT 07/00 A3007 RMK A01 T00730001  RH  061%=      5-min Rain = 0
KPMS 170945Z 35016KT 07/00 A3007 RMK A01 T00730002  RH  061%=      5-min Rain = 0
KPMS 170950Z 35015G20KT 07/00 A3007 RMK A01 T00720002  RH  062%=      5-min Rain = 0
KPMS 170955Z 36015KT 07/00 A3008 RMK A01 T00710003  RH  063%=      5-min Rain = 0
KPMS 171000Z 35013G18KT 07/00 A3008 RMK A01 T00690003  RH  064%=      5-min Rain = 0
KPMS 171005Z 35015KT 07/00 A3008 RMK A01 T00680004  RH  064%=      5-min Rain = 0
KPMS 171010Z 35015G20KT 07/00 A3009 RMK A01 T00670004  RH  065%=      5-min Rain = 0
KPMS 171015Z 35015G21KT 07/01 A3009 RMK A01 T00660005  RH  066%=      5-min Rain = 0
KPMS 171020Z 35016KT 07/01 A3009 RMK A01 T00660005  RH  066%=      5-min Rain = 0
KPMS 171025Z 35015G22KT 07/01 A3009 RMK A01 T00660006  RH  066%=      5-min Rain = 0
KPMS 171030Z 36015G20KT 07/01 A3009 RMK A01 T00650006  RH  067%=      5-min Rain = 0
KPMS 171035Z 36015KT 07/01 A301 RMK A01 T00660007  RH  067%=      5-min Rain = 0
KPMS 171040Z 36015G20KT 07/01 A301 RMK A01 T00650007  RH  067%=      5-min Rain = 0
KPMS 171045Z 36015G20KT 06/01 A301 RMK A01 T00640007  RH  068%=      5-min Rain = 0
KPMS 171050Z 36015G21KT 06/01 A301 RMK A01 T00640007  RH  068%=      5-min Rain = 0
KPMS 171055Z 36015G22KT 06/01 A3011 RMK A01 T00630007  RH  068%=      5-min Rain = 0
KPMS 171100Z 35015G21KT 06/01 A3011 RMK A01 T00620007  RH  069%=      5-min Rain = 0
KPMS 171105Z 35015KT 06/01 A3011 RMK A01 T00590007  RH  070%=      5-min Rain = 0
KPMS 171110Z 35015KT 06/01 A3011 RMK A01 T00590007  RH  070%=      5-min Rain = 0
KPMS 171115Z 35015KT 06/01 A3012 RMK A01 T00570007  RH  071%=      5-min Rain = 0
KPMS 171120Z 35014KT 06/01 A3012 RMK A01 T00550006  RH  072%=      5-min Rain = 0
KPMS 171125Z 35015G20KT 05/01 A3012 RMK A01 T00540006  RH  072%=      5-min Rain = 0
KPMS 171130Z 35016KT 05/01 A3012 RMK A01 T00530005  RH  072%=      5-min Rain = 0
KPMS 171135Z 35016KT 05/01 A3012 RMK A01 T00520005  RH  072%=      5-min Rain = 0
KPMS 171140Z 35017KT 05/01 A3012 RMK A01 T00520005  RH  073%=      5-min Rain = 0
KPMS 171145Z 34016G22KT 05/01 A3013 RMK A01 T00510005  RH  073%=      5-min Rain = 0
KPMS 171150Z 34015KT 05/00 A3013 RMK A01 T00490004  RH  074%=      5-min Rain = 0
KPMS 171155Z 34015G20KT 05/00 A3013 RMK A01 T00480004  RH  074%=      5-min Rain = 0
KPMS 171200Z 34015KT 05/00 A3013 RMK A01 T00470004  RH  075%=      5-min Rain = 0
KPMS 171205Z 35015G20KT 05/00 A3014 RMK A01 T00470004  RH  074%=      5-min Rain = 0
KPMS 171210Z 34016G21KT 05/00 A3014 RMK A01 T00470004  RH  075%=      5-min Rain = 0
KPMS 171215Z 34015KT 05/00 A3014 RMK A01 T00450003  RH  075%=      5-min Rain = 0
KPMS 171220Z 35016KT 04/00 A3014 RMK A01 T00440003  RH  076%=      5-min Rain = 0
KPMS 171225Z 34015KT 04/00 A3014 RMK A01 T00430003  RH  076%=      5-min Rain = 0
KPMS 171230Z 34014KT 04/00 A3014 RMK A01 T00410002  RH  077%=      5-min Rain = 0
KPMS 171235Z 34016KT 04/00 A3014 RMK A01 T00400002  RH  077%=      5-min Rain = 0
KPMS 171240Z 34016KT 04/00 A3014 RMK A01 T00400002  RH  077%=      5-min Rain = 0
KPMS 171245Z 34015KT 04/00 A3014 RMK A01 T00390002  RH  077%=      5-min Rain = 0
KPMS 171250Z 34015KT 04/00 A3014 RMK A01 T00370001  RH  078%=      5-min Rain = 0
KPMS 171255Z 34016KT 04/00 A3014 RMK A01 T00370001  RH  079%=      5-min Rain = 0
KPMS 171300Z 34015KT 04/00 A3014 RMK A01 T00360001  RH  079%=      5-min Rain = 0
KPMS 171305Z 34015KT 04/00 A3015 RMK A01 T00350000  RH  079%=      5-min Rain = 0
KPMS 171310Z 34015KT 03/00 A3015 RMK A01 T003300-0  RH  080%=      5-min Rain = 0
KPMS 171315Z 34014KT 03/M00 A3015 RMK A01 T00311001  RH  081%=      5-min Rain = 0
KPMS 171320Z 34014KT 03/00 A3016 RMK A01 T003100-0  RH  081%=      5-min Rain = 0
KPMS 171325Z 34015KT 03/M00 A3016 RMK A01 T00301001  RH  081%=      5-min Rain = 0
KPMS 171330Z 34014KT 03/M00 A3016 RMK A01 T00291001  RH  081%=      5-min Rain = 0
KPMS 171335Z 33016KT 03/00 A3016 RMK A01 T00300000  RH  081%=      5-min Rain = 0
KPMS 171340Z 33015KT 03/00 A3016 RMK A01 T00310000  RH  081%=      5-min Rain = 0
KPMS 171345Z 34015KT 03/00 A3016 RMK A01 T00320002  RH  082%=      5-min Rain = 0
KPMS 171350Z 34015KT 03/00 A3016 RMK A01 T00330003  RH  082%=      5-min Rain = 0
KPMS 171355Z 33015KT 03/00 A3017 RMK A01 T00340004  RH  082%=      5-min Rain = 0
KPMS 171400Z 33015KT 04/01 A3017 RMK A01 T00360006  RH  082%=      5-min Rain = 0
KPMS 171405Z 34014KT 04/01 A3017 RMK A01 T00370007  RH  081%=      5-min Rain = 0
KPMS 171410Z 34014KT 04/01 A3017 RMK A01 T00390008  RH  081%=      5-min Rain = 0
KPMS 171415Z 34014KT 04/01 A3017 RMK A01 T00410009  RH  081%=      5-min Rain = 0
KPMS 171420Z 34015G20KT 04/01 A3017 RMK A01 T00430010  RH  080%=      5-min Rain = 0
KPMS 171425Z 34015KT 05/01 A3017 RMK A01 T00450011  RH  080%=      5-min Rain = 0
KPMS 171430Z 34014KT 05/01 A3017 RMK A01 T00470012  RH  079%=      5-min Rain = 0
KPMS 171435Z 34014KT 05/01 A3017 RMK A01 T00490013  RH  079%=      5-min Rain = 0
KPMS 171440Z 34013KT 05/01 A3017 RMK A01 T00510014  RH  078%=      5-min Rain = 0
KPMS 171445Z 34013KT 05/02 A3017 RMK A01 T00540015  RH  077%=      5-min Rain = 0
KPMS 171450Z 34013KT 06/02 A3017 RMK A01 T00560016  RH  076%=      5-min Rain = 0
KPMS 171455Z 35014KT 06/02 A3017 RMK A01 T00590016  RH  075%=      5-min Rain = 0
KPMS 171500Z 35014KT 06/02 A3017 RMK A01 T00620017  RH  074%=      5-min Rain = 0
KPMS 171505Z 35015KT 06/02 A3017 RMK A01 T00640017  RH  073%=      5-min Rain = 0
KPMS 171510Z 35015KT 07/02 A3017 RMK A01 T00660017  RH  072%=      5-min Rain = 0
KPMS 171515Z 35016G22KT 07/02 A3017 RMK A01 T00660017  RH  072%=      5-min Rain = 0
KPMS 171520Z 35016KT 07/02 A3017 RMK A01 T00680017  RH  071%=      5-min Rain = 0
KPMS 171525Z 35014KT 07/02 A3017 RMK A01 T00720018  RH  069%=      5-min Rain = 0
KPMS 171530Z 35015KT 07/02 A3017 RMK A01 T00740018  RH  068%=      5-min Rain = 0
KPMS 171535Z 35014KT 08/02 A3017 RMK A01 T00770018  RH  067%=      5-min Rain = 0
KPMS 171540Z 35016G21KT 08/02 A3017 RMK A01 T00780018  RH  067%=      5-min Rain = 0
KPMS 171545Z 36015KT 08/02 A3017 RMK A01 T00810018  RH  065%=      5-min Rain = 0
KPMS 171550Z 36016KT 08/02 A3017 RMK A01 T00820017  RH  064%=      5-min Rain = 0
KPMS 171555Z 00017G22KT 09/02 A3017 RMK A01 T00850016  RH  063%=      5-min Rain = 0
KPMS 171600Z 00016KT 09/02 A3017 RMK A01 T00860016  RH  062%=      5-min Rain = 0
KPMS 171605Z 36015G20KT 09/02 A3017 RMK A01 T00890016  RH  061%=      5-min Rain = 0
KPMS 171610Z 00015G20KT 09/02 A3017 RMK A01 T00900016  RH  061%=      5-min Rain = 0
KPMS 171615Z 01015KT 09/01 A3017 RMK A01 T00910013  RH  059%=      5-min Rain = 0
KPMS 171620Z 36015KT 09/01 A3017 RMK A01 T00930014  RH  058%=      5-min Rain = 0
KPMS 171625Z 36015KT 10/01 A3017 RMK A01 T00950014  RH  058%=      5-min Rain = 0
KPMS 171630Z 36015G20KT 09/01 A3017 RMK A01 T00940013  RH  058%=      5-min Rain = 0
KPMS 171635Z 00015G20KT 10/01 A3017 RMK A01 T00960013  RH  057%=      5-min Rain = 0
KPMS 171640Z 00015KT 10/01 A3017 RMK A01 T01000013  RH  056%=      5-min Rain = 0
KPMS 171645Z 36016KT 10/01 A3018 RMK A01 T00960011  RH  056%=      5-min Rain = 0
KPMS 171650Z 35016KT 10/01 A3018 RMK A01 T00970011  RH  056%=      5-min Rain = 0
KPMS 171655Z 00015G20KT 10/01 A3018 RMK A01 T00990012  RH  055%=      5-min Rain = 0
KPMS 171700Z 35016KT 10/01 A3018 RMK A01 T01000012  RH  055%=      5-min Rain = 0
KPMS 171705Z 35016G21KT 10/01 A3018 RMK A01 T01030012  RH  054%=      5-min Rain = 0
KPMS 171710Z 01015G20KT 11/01 A3017 RMK A01 T01080014  RH  053%=      5-min Rain = 0
KPMS 171715Z 35017G22KT 11/01 A3017 RMK A01 T01050012  RH  053%=      5-min Rain = 0
KPMS 171720Z 35017KT 11/01 A3017 RMK A01 T01080012  RH  052%=      5-min Rain = 0
KPMS 171725Z 36016G21KT 11/01 A3017 RMK A01 T01090013  RH  052%=      5-min Rain = 0
KPMS 171730Z 35016G22KT 11/01 A3018 RMK A01 T01110013  RH  052%=      5-min Rain = 0
KPMS 171735Z 36015KT 11/01 A3018 RMK A01 T01110014  RH  052%=      5-min Rain = 0
KPMS 171740Z 01015G20KT 11/01 A3017 RMK A01 T01120013  RH  051%=      5-min Rain = 0
KPMS 171745Z 35014G20KT 11/01 A3017 RMK A01 T01130014  RH  051%=      5-min Rain = 0
KPMS 171750Z 35014KT 11/01 A3017 RMK A01 T01130013  RH  051%=      5-min Rain = 0
KPMS 171755Z 36013G21KT 12/01 A3017 RMK A01 T01160014  RH  050%=      5-min Rain = 0
KPMS 171800Z 35014G19KT 11/01 A3017 RMK A01 T01110013  RH  052%=      5-min Rain = 0
KPMS 171805Z 35015G20KT 11/01 A3017 RMK A01 T01140014  RH  051%=      5-min Rain = 0
KPMS 171810Z 34016G22KT 12/01 A3017 RMK A01 T01150014  RH  050%=      5-min Rain = 0
KPMS 171815Z 35014G19KT 12/01 A3017 RMK A01 T01170014  RH  050%=      5-min Rain = 0
KPMS 171820Z 35014G19KT 12/01 A3016 RMK A01 T01160013  RH  050%=      5-min Rain = 0
KPMS 171825Z 35013G18KT 12/02 A3016 RMK A01 T01180015  RH  050%=      5-min Rain = 0
KPMS 171830Z 34013G18KT 12/01 A3016 RMK A01 T01180014  RH  049%=      5-min Rain = 0
KPMS 171835Z 33015G20KT 12/01 A3015 RMK A01 T01180012  RH  049%=      5-min Rain = 0
KPMS 171840Z 33016KT 12/01 A3015 RMK A01 T01200010  RH  048%=      5-min Rain = 0
KPMS 171845Z 34014KT 12/01 A3015 RMK A01 T01200009  RH  047%=      5-min Rain = 0
KPMS 171850Z 35012KT 12/01 A3014 RMK A01 T01200011  RH  048%=      5-min Rain = 0
KPMS 171855Z 34014G19KT 12/01 A3014 RMK A01 T01220007  RH  046%=      5-min Rain = 0
KPMS 171900Z 33013G18KT 12/01 A3014 RMK A01 T01210007  RH  046%=      5-min Rain = 0
KPMS 171905Z 33013KT 12/01 A3013 RMK A01 T01230007  RH  046%=      5-min Rain = 0
KPMS 171910Z 34012KT 12/01 A3013 RMK A01 T01220005  RH  045%=      5-min Rain = 0
KPMS 171915Z 34010KT 12/01 A3013 RMK A01 T01240006  RH  045%=      5-min Rain = 0
KPMS 171920Z 34013G18KT 13/00 A3012 RMK A01 T01260003  RH  043%=      5-min Rain = 0
KPMS 171925Z 33010G15KT 13/00 A3012 RMK A01 T01250002  RH  043%=      5-min Rain = 0
KPMS 171930Z 32012KT 13/00 A3012 RMK A01 T01260002  RH  043%=      5-min Rain = 0
KPMS 171935Z 35012G18KT 13/00 A3011 RMK A01 T01260003  RH  043%=      5-min Rain = 0
KPMS 171940Z 00010G16KT 13/00 A3011 RMK A01 T01250003  RH  043%=      5-min Rain = 0
KPMS 171945Z 33011G16KT 13/00 A3011 RMK A01 T01270003  RH  043%=      5-min Rain = 0
KPMS 171950Z 33011G16KT 13/00 A3011 RMK A01 T012700-0  RH  042%=      5-min Rain = 0
KPMS 171955Z 35012KT 13/00 A301 RMK A01 T01290000  RH  042%=      5-min Rain = 0
KPMS 172000Z 35008G13KT 13/00 A301 RMK A01 T01270000  RH  042%=      5-min Rain = 0
KPMS 172005Z 32007G12KT 13/00 A301 RMK A01 T01310001  RH  041%=      5-min Rain = 0
KPMS 172010Z 35010KT 13/00 A301 RMK A01 T01340001  RH  040%=      5-min Rain = 0
KPMS 172015Z 34010KT 13/M01 A3009 RMK A01 T01311005  RH  039%=      5-min Rain = 0
KPMS 172020Z 35008KT 13/M01 A3009 RMK A01 T01331005  RH  039%=      5-min Rain = 0
KPMS 172025Z 35008G13KT 13/M00 A3009 RMK A01 T01331001  RH  040%=      5-min Rain = 0
KPMS 172030Z 33009KT 14/00 A3009 RMK A01 T01350000  RH  040%=      5-min Rain = 0
KPMS 172035Z 32008KT 13/M00 A3009 RMK A01 T01311001  RH  041%=      5-min Rain = 0
KPMS 172040Z 36008KT 13/M00 A3009 RMK A01 T01341001  RH  040%=      5-min Rain = 0
KPMS 172045Z 34010KT 14/M00 A3008 RMK A01 T01361003  RH  039%=      5-min Rain = 0
KPMS 172050Z 35008KT 13/M00 A3008 RMK A01 T01341003  RH  039%=      5-min Rain = 0
KPMS 172055Z 34010KT 14/M00 A3008 RMK A01 T01371004  RH  038%=      5-min Rain = 0
KPMS 172100Z 33009KT 13/M00 A3008 RMK A01 T01341004  RH  039%=      5-min Rain = 0
KPMS 172105Z 35009KT 13/M00 A3008 RMK A01 T01331004  RH  039%=      5-min Rain = 0
KPMS 172110Z 32007KT 13/M01 A3008 RMK A01 T01341006  RH  039%=      5-min Rain = 0
KPMS 172115Z 34010KT 14/M01 A3008 RMK A01 T01361011  RH  037%=      5-min Rain = 0
KPMS 172120Z 32010KT 13/M01 A3008 RMK A01 T01341012  RH  037%=      5-min Rain = 0
KPMS 172125Z 34010KT 13/M01 A3007 RMK A01 T01331009  RH  038%=      5-min Rain = 0
KPMS 172130Z 33007KT 13/M01 A3007 RMK A01 T01341006  RH  039%=      5-min Rain = 0
KPMS 172135Z 34009KT 14/M01 A3007 RMK A01 T01371008  RH  037%=      5-min Rain = 0
KPMS 172140Z 33009KT 13/M01 A3007 RMK A01 T01331010  RH  038%=      5-min Rain = 0
KPMS 172145Z 35009KT 14/M01 A3007 RMK A01 T01351014  RH  036%=      5-min Rain = 0
KPMS 172150Z 33010KT 13/M01 A3007 RMK A01 T01341009  RH  038%=      5-min Rain = 0
KPMS 172155Z 35009G14KT 14/M01 A3007 RMK A01 T01351006  RH  038%=      5-min Rain = 0
KPMS 172200Z 34009KT 13/M01 A3007 RMK A01 T01341009  RH  038%=      5-min Rain = 0
KPMS 172205Z 32008KT 13/M01 A3007 RMK A01 T01341010  RH  037%=      5-min Rain = 0
KPMS 172210Z 34009KT 13/M01 A3007 RMK A01 T01341013  RH  037%=      5-min Rain = 0
KPMS 172215Z 34008KT 13/M01 A3007 RMK A01 T01331012  RH  037%=      5-min Rain = 0
KPMS 172220Z 35007KT 13/M01 A3007 RMK A01 T01321011  RH  038%=      5-min Rain = 0
KPMS 172225Z 33006KT 13/M01 A3007 RMK A01 T01311008  RH  038%=      5-min Rain = 0
KPMS 172230Z 33006KT 13/M01 A3007 RMK A01 T01311008  RH  039%=      5-min Rain = 0
KPMS 172235Z 34007KT 13/M01 A3007 RMK A01 T01301010  RH  038%=      5-min Rain = 0
KPMS 172240Z 33007KT 13/M01 A3007 RMK A01 T01291010  RH  038%=      5-min Rain = 0
KPMS 172245Z 33006KT 13/M01 A3007 RMK A01 T01291010  RH  039%=      5-min Rain = 0
KPMS 172250Z 34006KT 13/M01 A3007 RMK A01 T01271009  RH  039%=      5-min Rain = 0
KPMS 172255Z 34005KT 13/M01 A3007 RMK A01 T01261009  RH  040%=      5-min Rain = 0
KPMS 172300Z 33006KT 12/M01 A3007 RMK A01 T01231010  RH  040%=      5-min Rain = 0
KPMS 172305Z 32005KT 12/M01 A3007 RMK A01 T01201008  RH  042%=      5-min Rain = 0
KPMS 172310Z 33005KT 12/M01 A3007 RMK A01 T01171009  RH  042%=      5-min Rain = 0
KPMS 172315Z 32004KT 11/M01 A3007 RMK A01 T01121009  RH  043%=      5-min Rain = 0
KPMS 172320Z 32004KT 11/M01 A3007 RMK A01 T01111009  RH  044%=      5-min Rain = 0
KPMS 172325Z 33003KT 11/M01 A3007 RMK A01 T01081010  RH  044%=      5-min Rain = 0
KPMS 172330Z 33003KT 11/M01 A3008 RMK A01 T01071011  RH  044%=      5-min Rain = 0
KPMS 172335Z 32002KT 10/M01 A3007 RMK A01 T01041011  RH  045%=      5-min Rain = 0
KPMS 172340Z 32002KT 10/M01 A3007 RMK A01 T01021011  RH  046%=      5-min Rain = 0
KPMS 172345Z 32001KT 10/M01 A3007 RMK A01 T00971012  RH  047%=      5-min Rain = 0
KPMS 172350Z 33002KT 09/M01 A3007 RMK A01 T00931012  RH  048%=      5-min Rain = 0
KPMS 172355Z 33002KT 09/M01 A3007 RMK A01 T00901012  RH  049%=      5-min Rain = 0
KPMS 180000Z 33001KT 09/M01 A3008 RMK A01 T00871012  RH  050%=      5-min Rain = 0
KPMS 180005Z 32001KT 09/M01 A3008 RMK A01 T00861012  RH  051%=      5-min Rain = 0
KPMS 180010Z 30001KT 09/M01 A3008 RMK A01 T00911011  RH  049%=      5-min Rain = 0
KPMS 180015Z 30001KT 10/M01 A3008 RMK A01 T00951012  RH  048%=      5-min Rain = 0
KPMS 180020Z 27001KT 10/M01 A3008 RMK A01 T00961011  RH  047%=      5-min Rain = 0
KPMS 180025Z 24002KT 10/M01 A3008 RMK A01 T00961012  RH  047%=      5-min Rain = 0
KPMS 180030Z 22003KT 09/M01 A3008 RMK A01 T00891011  RH  050%=      5-min Rain = 0
KPMS 180035Z 22003KT 09/M01 A3008 RMK A01 T00921012  RH  049%=      5-min Rain = 0
KPMS 180040Z 22002KT 09/M01 A3008 RMK A01 T00901012  RH  049%=      5-min Rain = 0
KPMS 180045Z 23002KT 09/M01 A3008 RMK A01 T00871012  RH  050%=      5-min Rain = 0
KPMS 180050Z 24003KT 08/M01 A3008 RMK A01 T00841012  RH  051%=      5-min Rain = 0
KPMS 180055Z 25003KT 08/M01 A3008 RMK A01 T00801011  RH  053%=      5-min Rain = 0
KPMS 180100Z 23003KT 08/M01 A3009 RMK A01 T00791011  RH  054%=      5-min Rain = 0
KPMS 180105Z 22004KT 08/M01 A3009 RMK A01 T00791011  RH  053%=      5-min Rain = 0
KPMS 180110Z 23004KT 08/M01 A3009 RMK A01 T00781011  RH  054%=      5-min Rain = 0
KPMS 180115Z 24003KT 07/M01 A3009 RMK A01 T00741012  RH  055%=      5-min Rain = 0
KPMS 180120Z 23004KT 07/M01 A3009 RMK A01 T00711012  RH  056%=      5-min Rain = 0
KPMS 180125Z 23004KT 07/M01 A3009 RMK A01 T00741011  RH  055%=      5-min Rain = 0
KPMS 180130Z 24004KT 07/M01 A3009 RMK A01 T00721012  RH  056%=      5-min Rain = 0
KPMS 180135Z 23004KT 07/M01 A3009 RMK A01 T00721012  RH  056%=      5-min Rain = 0
KPMS 180140Z 23004KT 07/M01 A3009 RMK A01 T00731012  RH  055%=      5-min Rain = 0
KPMS 180145Z 24004KT 07/M01 A3009 RMK A01 T00691014  RH  056%=      5-min Rain = 0
KPMS 180150Z 24003KT 05/M02 A3009 RMK A01 T00491020  RH  061%=      5-min Rain = 0
KPMS 180155Z 23004KT 05/M02 A3009 RMK A01 T00451016  RH  065%=      5-min Rain = 0
KPMS 180200Z 24004KT 05/M01 A3009 RMK A01 T00501014  RH  064%=      5-min Rain = 0
KPMS 180205Z 23003KT 05/M02 A3009 RMK A01 T00511015  RH  063%=      5-min Rain = 0
KPMS 180210Z 23004KT 05/M01 A3009 RMK A01 T00511013  RH  064%=      5-min Rain = 0
KPMS 180215Z 22005KT 06/M01 A3009 RMK A01 T00621011  RH  060%=      5-min Rain = 0
KPMS 180220Z 22004KT 06/M01 A3009 RMK A01 T00611010  RH  061%=      5-min Rain = 0
KPMS 180225Z 22005KT 06/M01 A3009 RMK A01 T00561010  RH  063%=      5-min Rain = 0
KPMS 180230Z 22005KT 05/M01 A3009 RMK A01 T00541010  RH  064%=      5-min Rain = 0
KPMS 180235Z 22005KT 06/M01 A3009 RMK A01 T00561011  RH  063%=      5-min Rain = 0
KPMS 180240Z 21005KT 06/M01 A3008 RMK A01 T00561012  RH  062%=      5-min Rain = 0
KPMS 180245Z 21005KT 05/M01 A3008 RMK A01 T00531013  RH  063%=      5-min Rain = 0
KPMS 180250Z 22005KT 05/M01 A3008 RMK A01 T00481014  RH  065%=      5-min Rain = 0
KPMS 180255Z 22005KT 05/M01 A3008 RMK A01 T00501013  RH  064%=      5-min Rain = 0
KPMS 180300Z 21005KT 05/M01 A3008 RMK A01 T00501013  RH  064%=      5-min Rain = 0
KPMS 180305Z 21005KT 05/M01 A3008 RMK A01 T00531013  RH  063%=      5-min Rain = 0
KPMS 180310Z 21006KT 05/M01 A3008 RMK A01 T00531013  RH  063%=      5-min Rain = 0
KPMS 180315Z 22004KT 05/M01 A3008 RMK A01 T00541013  RH  063%=      5-min Rain = 0
KPMS 180320Z 21006KT 05/M01 A3007 RMK A01 T00531013  RH  063%=      5-min Rain = 0
KPMS 180325Z 21008KT 05/M02 A3007 RMK A01 T00491015  RH  064%=      5-min Rain = 0
KPMS 180330Z 21008KT 05/M02 A3007 RMK A01 T00471015  RH  065%=      5-min Rain = 0
KPMS 180335Z 21008KT 05/M01 A3007 RMK A01 T00471014  RH  065%=      5-min Rain = 0
KPMS 180340Z 21008KT 05/M01 A3007 RMK A01 T00471013  RH  066%=      5-min Rain = 0
KPMS 180345Z 21008KT 05/M01 A3007 RMK A01 T00481014  RH  065%=      5-min Rain = 0
KPMS 180350Z 21007KT 05/M01 A3007 RMK A01 T00461014  RH  065%=      5-min Rain = 0
KPMS 180355Z 21007KT 05/M02 A3006 RMK A01 T00451015  RH  066%=      5-min Rain = 0
KPMS 180400Z 20008KT 04/M02 A3006 RMK A01 T00441015  RH  066%=      5-min Rain = 0
KPMS 180405Z 20008KT 05/M02 A3006 RMK A01 T00451015  RH  066%=      5-min Rain = 0
KPMS 180410Z 20007KT 04/M01 A3005 RMK A01 T00441014  RH  066%=      5-min Rain = 0
KPMS 180415Z 21007KT 04/M02 A3006 RMK A01 T00421015  RH  067%=      5-min Rain = 0
KPMS 180420Z 21007KT 04/M01 A3005 RMK A01 T00421014  RH  068%=      5-min Rain = 0
KPMS 180425Z 21007KT 04/M02 A3005 RMK A01 T00401015  RH  068%=      5-min Rain = 0
KPMS 180430Z 21007KT 04/M01 A3005 RMK A01 T00401014  RH  068%=      5-min Rain = 0
KPMS 180435Z 21007KT 04/M01 A3005 RMK A01 T00411013  RH  068%=      5-min Rain = 0
KPMS 180440Z 21007KT 04/M01 A3004 RMK A01 T00411013  RH  068%=      5-min Rain = 0
KPMS 180445Z 21007KT 04/M01 A3004 RMK A01 T00421013  RH  068%=      5-min Rain = 0
KPMS 180450Z 21007KT 04/M01 A3004 RMK A01 T00431013  RH  067%=      5-min Rain = 0
KPMS 180455Z 20007KT 05/M01 A3004 RMK A01 T00451012  RH  067%=      5-min Rain = 0
KPMS 180500Z 21007KT 05/M01 A3004 RMK A01 T00451012  RH  067%=      5-min Rain = 0
KPMS 180505Z 20007KT 04/M01 A3004 RMK A01 T00431012  RH  068%=      5-min Rain = 0
KPMS 180510Z 21007KT 04/M01 A3004 RMK A01 T00431012  RH  068%=      5-min Rain = 0
KPMS 180515Z 21006KT 04/M01 A3004 RMK A01 T00441012  RH  068%=      5-min Rain = 0
KPMS 180520Z 21006KT 05/M01 A3003 RMK A01 T00451012  RH  067%=      5-min Rain = 0
KPMS 180525Z 21006KT 05/M01 A3003 RMK A01 T00451012  RH  067%=      5-min Rain = 0
KPMS 180530Z 21006KT 04/M01 A3003 RMK A01 T00441011  RH  068%=      5-min Rain = 0
KPMS 180535Z 21006KT 04/M01 A3003 RMK A01 T00441010  RH  068%=      5-min Rain = 0
KPMS 180540Z 20006KT 04/M01 A3003 RMK A01 T00431010  RH  069%=      5-min Rain = 0
KPMS 180545Z 20006KT 04/M01 A3002 RMK A01 T00431010  RH  069%=      5-min Rain = 0
KPMS 180550Z 20006KT 04/M01 A3002 RMK A01 T00421010  RH  070%=      5-min Rain = 0
KPMS 180555Z 21007KT 04/M01 A3002 RMK A01 T00431010  RH  069%=      5-min Rain = 0

Page generated in 0.0092 seconds.